Detalii statie MIRACOM [00001CFF]

Toti senzorii

Date Temperatura solului [C]Precipitatii [mm]Voltaj baterie [mV]Leaf Wetness [Min]HC Air temperature [C]HC Relative humidity [%]Punctul de roua [C]
medieminmaxsumaultimatimpmedieminmaxmediemediemin
2018-06-20 10:00:00 25.8 24.8 26.7 0 7264 31.06 30.05 32.18 0 0 0
2018-06-20 11:00:00 27.5 27.1 27.9 0 7332 32.16 30.48 33.18 0 0 0
2018-06-20 12:00:00 29.1 28.3 30.2 0 7314 33.33 31.83 33.94 0 0 0
2018-06-20 13:00:00 31.2 30.4 32.2 0 7332 34.25 33.42 35.3 0 0 0
2018-06-20 14:00:00 33.2 32.4 34 0 7324 34.66 32.84 36.62 0 0 0
2018-06-20 15:00:00 35.1 34.8 35.3 0 7332 34.43 33.45 35.09 0 0 0
2018-06-20 16:00:00 35.6 35.4 35.8 0 7332 34.34 32.42 35.61 0 0 0
2018-06-20 17:00:00 35.9 35.7 36.1 0 7314 33.97 33.67 34.13 0 0 0
2018-06-20 18:00:00 35.7 35.4 36 0 7304 32.97 32.29 33.93 0 0 0
2018-06-20 19:00:00 34.9 34.5 35.6 0 7108 30.49 28.24 32.05 0 0 0
2018-06-20 20:00:00 33.4 32.6 34.5 0 6972 27.87 26.6 29.43 0 0 0
2018-06-20 21:00:00 31.6 30.9 32.5 0 6962 25.2 24.6 26.23 0 0 0
2018-06-20 22:00:00 30.1 29.5 30.8 0 6962 24.07 23.04 24.84 0 0 0
2018-06-20 23:00:00 29 28.8 29.4 0 6962 24.61 24.11 24.96 0 0 0
2018-06-21 00:00:00 28.3 28 28.6 0 6952 24.65 23.87 25.35 0 0 0
2018-06-21 01:00:00 27.6 27.3 27.9 0 6942 24.5 24.3 24.84 0 0 0
2018-06-21 02:00:00 27 26.8 27.4 0 6942 24.69 24.34 25.22 0 0 0
2018-06-21 03:00:00 26.4 26 26.7 0 6942 23.06 21.96 24.41 0 0 0
2018-06-21 04:00:00 25.9 25.7 26.2 0 6932 22.49 21.84 23.19 0 0 0
2018-06-21 05:00:00 25.5 25.3 25.9 0 6932 22.86 22.66 23.17 0 0 0
2018-06-21 06:00:00 25.1 24.9 25.3 0 7000 23.11 22.67 23.88 0 0 0
2018-06-21 07:00:00 25.1 25 25.2 0 7080 24.07 23.65 25.37 0 0 0
2018-06-21 08:00:00 25.4 25.1 25.9 0 7196 26.81 25.68 27.86 0 0 0
2018-06-21 09:00:00 26.2 25.9 26.7 0 7284 28.19 27.01 29.31 0 0 0
2018-06-21 10:00:00 27.4 26.9 27.9 0 7314 30.16 29.45 31.18 0 0 0
2018-06-21 11:00:00 28.6 28 29.4 0 7304 33.81 31.44 35.66 0 0 0
2018-06-21 12:00:00 30.3 29.6 31.5 0 7324 34.5 31.45 36.46 0 0 0
2018-06-21 13:00:00 32.7 32.6 33 0 7314 29.81 29.24 30.67 0 0 0
2018-06-21 14:00:00 32.4 32.3 32.6 0 7332 30.53 29.01 31.48 0 0 0
2018-06-21 15:00:00 32.6 32.5 32.7 0 7138 31.32 30.42 32.25 0 0 0
2018-06-21 16:00:00 32.2 31.8 32.6 0 7304 29.58 29.01 30.16 0 0 0
2018-06-21 17:00:00 31.3 30.9 31.8 0 7118 27.21 25.22 28.49 0 0 0
2018-06-21 18:00:00 30.5 30.4 30.9 0 7128 24.66 24.01 25.45 0 0 0
2018-06-21 19:00:00 30.1 29.9 30.2 0 7098 25.72 25.31 26.03 0 0 0
2018-06-21 20:00:00 29.7 29.4 29.9 0 6982 24.57 24.04 25.08 0 0 0
2018-06-21 21:00:00 29 28.8 29.4 0 6972 23.61 22.97 24.07 0 0 0
2018-06-21 22:00:00 28.5 28.2 28.8 0 6952 22.59 22.24 22.98 0 0 0
2018-06-21 23:00:00 28 27.7 28.2 0 6962 21.34 20.38 22.27 0 0 0
2018-06-22 00:00:00 27.4 27.2 27.7 0 6952 20.43 19.95 20.82 0 0 0
2018-06-22 01:00:00 27 26.8 27.3 0 6932 20.61 20.44 20.74 0 0 0
2018-06-22 02:00:00 26.7 26.4 26.9 0 6932 20.37 19.86 20.6 0 0 0
2018-06-22 03:00:00 26.3 26.1 26.7 0 6922 19.7 19.56 19.89 0 0 0
2018-06-22 04:00:00 25.8 25.7 26 0 6922 19.52 19.15 19.67 0 0 0
2018-06-22 05:00:00 25.5 25.3 25.8 0 6922 19.04 18.92 19.14 0 0 0
2018-06-22 06:00:00 25.3 25.1 25.4 0 7000 19.54 18.5 20.54 0 0 0
2018-06-22 07:00:00 25.1 25.1 25.3 0 7108 21.98 20.73 23.43 0 0 0
2018-06-22 08:00:00 25.2 25.1 25.4 0 7158 25.75 23.79 27.75 0 0 0
2018-06-22 09:00:00 25.5 25.3 25.8 0 7158 28.85 27.18 30.64 0 0 0